Time;durP1;ratioP1;P1;durP2;ratioP2;P2;SDS_P1;SDS_P2;PMS_P1;PMS_P2;Temp;Humidity;BMP_temperature;BMP_pressure;BME280_temperature;BME280_humidity;BME280_pressure;Samples;Min_cycle;Max_cycle;Signal;HPM_P1;HPM_P2
2022/10/12 00:00:30;;;;;;;9.93;3.40;;;20.20;65.10;;;;;;10356504;28;20046;-38
2022/10/12 00:05:32;;;;;;;8.52;2.60;;;20.30;65.10;;;;;;10355864;28;20069;-39
2022/10/12 00:10:40;;;;;;;8.23;3.08;;;20.20;65.10;;;;;;10352068;28;20073;-39
2022/10/12 00:15:42;;;;;;;9.38;3.00;;;20.20;65.10;;;;;;10354918;28;20064;-40
2022/10/12 00:20:44;;;;;;;10.55;2.85;;;20.20;65.00;;;;;;10356308;28;20105;-40
2022/10/12 00:25:47;;;;;;;6.07;2.50;;;20.10;65.10;;;;;;10354649;28;20050;-39
2022/10/12 00:30:49;;;;;;;14.13;3.28;;;20.10;65.20;;;;;;10353689;28;20413;-38
2022/10/12 00:35:53;;;;;;;4.43;2.80;;;20.10;65.10;;;;;;10354340;28;20112;-34
2022/10/12 00:40:56;;;;;;;3.10;2.15;;;20.10;65.10;;;;;;10355470;28;20514;-40
2022/10/12 00:46:01;;;;;;;5.57;2.38;;;20.10;65.20;;;;;;10355288;28;20141;-39
2022/10/12 00:51:04;;;;;;;7.65;2.20;;;20.10;65.20;;;;;;10354967;28;20078;-37
2022/10/12 00:56:12;;;;;;;6.68;2.45;;;20.10;65.20;;;;;;10353998;28;20060;-42
2022/10/12 01:01:14;;;;;;;7.07;1.90;;;20.00;65.20;;;;;;10350180;28;20053;-38
2022/10/12 01:06:17;;;;;;;6.82;2.70;;;20.00;65.10;;;;;;10344387;28;20141;-39
2022/10/12 01:11:20;;;;;;;4.15;2.35;;;20.00;65.30;;;;;;10350968;28;20133;-38
2022/10/12 01:16:28;;;;;;;5.47;2.15;;;20.00;65.20;;;;;;10352996;28;20049;-39
2022/10/12 01:21:37;;;;;;;6.85;2.22;;;19.90;65.20;;;;;;10349872;28;20093;-38
2022/10/12 01:27:14;;;;;;;6.35;2.00;;;19.90;65.20;;;;;;10350900;28;20145;-38
2022/10/12 01:32:24;;;;;;;5.05;2.00;;;19.90;65.30;;;;;;10351973;28;20471;-39
2022/10/12 01:37:36;;;;;;;7.88;1.63;;;19.90;65.20;;;;;;10351654;28;20112;-41
2022/10/12 01:42:41;;;;;;;13.32;2.10;;;19.90;65.30;;;;;;10354471;28;20444;-41
2022/10/12 01:47:52;;;;;;;6.55;1.85;;;19.90;65.30;;;;;;10354833;28;20054;-38
2022/10/12 01:52:59;;;;;;;6.55;1.80;;;19.90;65.30;;;;;;10358083;28;20088;-38
2022/10/12 01:58:26;;;;;;;4.00;1.60;;;19.90;65.40;;;;;;10362499;28;20058;-39
2022/10/12 02:03:36;;;;;;;5.22;1.95;;;19.80;65.30;;;;;;10359150;28;20057;-40
2022/10/12 02:08:44;;;;;;;9.77;1.90;;;19.80;65.30;;;;;;10359432;28;20077;-37
2022/10/12 02:13:50;;;;;;;5.50;1.92;;;19.80;65.30;;;;;;10358817;28;20666;-40
2022/10/12 02:18:55;;;;;;;3.58;1.52;;;19.80;65.20;;;;;;10356993;28;20149;-37
2022/10/12 02:24:00;;;;;;;7.88;2.08;;;19.80;65.40;;;;;;10358307;28;20073;-41
2022/10/12 02:29:06;;;;;;;6.70;1.80;;;19.70;65.30;;;;;;10356484;28;20089;-38
2022/10/12 02:34:14;;;;;;;6.60;2.03;;;19.70;65.30;;;;;;10360871;28;20085;-37
2022/10/12 02:39:20;;;;;;;9.15;1.35;;;19.60;65.20;;;;;;10357748;28;20132;-39
2022/10/12 02:44:26;;;;;;;4.47;1.30;;;19.70;65.30;;;;;;10357753;28;20049;-38
2022/10/12 02:49:31;;;;;;;6.45;1.58;;;19.70;65.20;;;;;;10359525;28;20062;-39
2022/10/12 02:54:33;;;;;;;6.82;1.80;;;19.70;65.20;;;;;;10358291;28;20037;-40
2022/10/12 02:59:35;;;;;;;7.88;1.83;;;19.70;65.20;;;;;;10359588;28;20104;-37
2022/10/12 03:04:39;;;;;;;4.65;1.80;;;19.70;65.20;;;;;;10351722;28;20093;-37
2022/10/12 03:09:40;;;;;;;5.70;1.67;;;19.70;65.30;;;;;;10356643;28;20702;-39
2022/10/12 03:14:42;;;;;;;7.25;1.48;;;19.70;65.30;;;;;;10355437;28;20126;-39
2022/10/12 03:19:46;;;;;;;9.13;1.92;;;19.60;65.30;;;;;;10357291;28;20137;-38
2022/10/12 03:24:48;;;;;;;7.00;1.70;;;19.70;65.20;;;;;;10359182;28;20046;-41
2022/10/12 03:29:50;;;;;;;3.75;1.65;;;19.60;65.30;;;;;;10358807;28;20056;-38
2022/10/12 03:34:53;;;;;;;8.95;1.42;;;19.70;65.20;;;;;;10354175;28;20684;-37
2022/10/12 03:39:55;;;;;;;6.38;2.13;;;19.60;65.00;;;;;;10356472;28;20048;-40
2022/10/12 03:44:56;;;;;;;3.13;1.52;;;19.40;65.10;;;;;;10357748;28;20541;-39
2022/10/12 03:50:00;;;;;;;2.72;1.52;;;19.50;65.10;;;;;;10355836;28;20077;-38
2022/10/12 03:55:01;;;;;;;8.02;1.70;;;19.50;65.20;;;;;;10352995;28;20101;-38
2022/10/12 04:00:04;;;;;;;7.38;1.77;;;19.60;65.20;;;;;;10354911;28;20142;-38
2022/10/12 04:05:09;;;;;;;4.55;1.50;;;19.50;65.10;;;;;;10356938;28;20081;-37
2022/10/12 04:10:10;;;;;;;3.28;1.75;;;19.50;65.10;;;;;;10356863;28;20069;-40
2022/10/12 04:15:13;;;;;;;3.35;1.30;;;19.50;65.00;;;;;;10355265;28;20156;-40
2022/10/12 04:20:16;;;;;;;4.63;1.65;;;19.50;65.00;;;;;;10356781;28;20082;-37
2022/10/12 04:25:18;;;;;;;3.03;1.25;;;19.50;65.10;;;;;;10354623;28;20073;-39
2022/10/12 04:30:20;;;;;;;4.82;1.40;;;19.50;65.00;;;;;;10353267;28;20045;-39
2022/10/12 04:35:23;;;;;;;2.58;1.52;;;19.40;65.10;;;;;;10353665;28;20589;-43
2022/10/12 04:40:25;;;;;;;7.22;1.60;;;19.40;65.10;;;;;;10352383;28;20053;-38
2022/10/12 04:45:27;;;;;;;5.65;1.58;;;19.40;65.20;;;;;;10352017;28;20140;-39
2022/10/12 04:50:30;;;;;;;8.32;1.83;;;19.40;65.10;;;;;;10348418;28;20145;-39
2022/10/12 04:55:32;;;;;;;6.13;1.38;;;19.40;65.10;;;;;;10353421;28;20054;-40
2022/10/12 05:00:34;;;;;;;4.35;1.60;;;19.50;65.20;;;;;;10351224;28;20534;-38
2022/10/12 05:05:38;;;;;;;9.75;2.00;;;19.50;65.10;;;;;;10344188;28;21078;-39
2022/10/12 05:10:39;;;;;;;3.42;1.33;;;19.40;65.20;;;;;;10352465;28;20149;-38
2022/10/12 05:15:42;;;;;;;4.63;1.80;;;19.50;65.20;;;;;;10351196;28;20140;-37
2022/10/12 05:20:45;;;;;;;3.22;1.80;;;19.50;65.30;;;;;;10352555;28;20050;-38
2022/10/12 05:25:46;;;;;;;8.07;2.03;;;19.50;65.40;;;;;;10350375;28;20127;-38
2022/10/12 05:30:49;;;;;;;3.67;1.92;;;19.50;65.30;;;;;;10352598;28;20100;-39
2022/10/12 05:35:52;;;;;;;7.55;2.25;;;19.50;65.50;;;;;;10354331;28;20041;-39
2022/10/12 05:40:54;;;;;;;4.65;1.40;;;19.40;65.60;;;;;;10353005;28;20058;-37
2022/10/12 05:45:56;;;;;;;6.93;2.28;;;19.50;65.60;;;;;;10352544;28;20135;-40
2022/10/12 05:50:59;;;;;;;3.50;1.63;;;19.50;65.50;;;;;;10351016;28;20133;-39
2022/10/12 05:56:02;;;;;;;6.43;2.15;;;19.50;65.50;;;;;;10350724;28;20233;-36
2022/10/12 06:01:05;;;;;;;6.35;2.63;;;19.50;65.60;;;;;;10350692;28;20556;-37
2022/10/12 06:06:09;;;;;;;7.57;2.10;;;19.50;65.70;;;;;;10351404;28;20251;-36
2022/10/12 06:11:12;;;;;;;7.45;2.35;;;19.50;65.40;;;;;;10352885;28;20058;-39
2022/10/12 06:16:13;;;;;;;4.82;1.90;;;19.50;65.60;;;;;;10350813;28;20068;-39
2022/10/12 06:21:17;;;;;;;5.57;1.70;;;19.50;65.60;;;;;;10342836;28;20534;-39
2022/10/12 06:26:18;;;;;;;9.75;2.00;;;19.50;65.70;;;;;;10351221;28;20100;-38
2022/10/12 06:31:20;;;;;;;7.85;2.20;;;19.50;65.80;;;;;;10352251;28;20064;-39
2022/10/12 06:36:23;;;;;;;9.18;2.17;;;19.50;65.80;;;;;;10351535;28;20549;-38
2022/10/12 06:41:25;;;;;;;5.00;1.80;;;19.60;65.70;;;;;;10357516;28;20479;-39
2022/10/12 06:46:27;;;;;;;3.50;1.90;;;19.70;65.60;;;;;;10357900;28;20049;-42
2022/10/12 06:51:30;;;;;;;6.22;2.22;;;19.60;65.50;;;;;;10356888;28;20509;-39
2022/10/12 06:56:32;;;;;;;8.48;2.50;;;19.70;65.80;;;;;;10358019;28;20116;-40
2022/10/12 07:01:34;;;;;;;6.28;2.25;;;19.70;65.20;;;;;;10357590;28;20053;-39
2022/10/12 07:06:37;;;;;;;6.65;2.40;;;19.80;65.10;;;;;;10358172;28;20070;-39
2022/10/12 07:11:39;;;;;;;6.95;2.85;;;19.70;64.90;;;;;;10357702;28;20497;-39
2022/10/12 07:16:41;;;;;;;5.57;1.98;;;19.80;64.90;;;;;;10357930;28;20474;-38
2022/10/12 07:21:44;;;;;;;6.00;2.63;;;19.70;64.70;;;;;;10357494;28;20147;-39
2022/10/12 07:26:46;;;;;;;11.27;2.83;;;19.70;64.70;;;;;;10356634;28;20477;-39
2022/10/12 07:31:47;;;;;;;6.13;2.63;;;19.70;64.60;;;;;;10356648;28;20431;-37
2022/10/12 07:36:50;;;;;;;9.68;2.85;;;19.70;64.60;;;;;;10355757;28;20081;-39
2022/10/12 07:41:53;;;;;;;4.40;2.47;;;19.70;64.40;;;;;;10356810;28;20482;-38
2022/10/12 07:46:55;;;;;;;5.70;2.60;;;19.70;64.30;;;;;;10357088;28;20050;-39
2022/10/12 07:51:58;;;;;;;8.57;2.75;;;19.70;64.20;;;;;;10356444;28;20085;-36
2022/10/12 07:57:00;;;;;;;9.30;3.20;;;19.70;64.00;;;;;;10356931;28;20060;-37
2022/10/12 08:02:02;;;;;;;7.68;3.00;;;19.70;64.10;;;;;;10355917;28;20142;-40
2022/10/12 08:07:05;;;;;;;10.10;3.47;;;19.60;63.90;;;;;;10354877;28;20732;-40
2022/10/12 08:12:07;;;;;;;9.55;2.90;;;19.70;64.00;;;;;;10356660;28;20077;-40
2022/10/12 08:17:09;;;;;;;9.10;3.28;;;19.80;63.80;;;;;;10353749;28;21817;-38
2022/10/12 08:22:12;;;;;;;10.10;2.90;;;19.70;63.80;;;;;;10355299;28;20064;-40
2022/10/12 08:27:14;;;;;;;7.40;2.92;;;19.70;63.70;;;;;;10354704;28;20501;-41
2022/10/12 08:32:16;;;;;;;9.98;2.90;;;19.70;63.70;;;;;;10354637;28;20127;-39
2022/10/12 08:37:19;;;;;;;8.52;2.72;;;19.70;63.70;;;;;;10354018;28;20131;-40
2022/10/12 08:42:35;;;;;;;6.28;2.83;;;19.70;63.60;;;;;;10354893;28;20168;-38
2022/10/12 08:47:41;;;;;;;5.80;2.75;;;19.70;63.40;;;;;;10354425;28;20049;-37
2022/10/12 08:52:52;;;;;;;8.02;2.88;;;19.80;63.40;;;;;;10354842;28;20100;-39
2022/10/12 08:57:54;;;;;;;11.40;3.08;;;19.80;63.20;;;;;;10353124;28;20058;-38
2022/10/12 09:03:08;;;;;;;10.13;3.03;;;19.80;63.20;;;;;;10351301;28;20133;-38
2022/10/12 09:08:24;;;;;;;9.13;2.70;;;19.80;63.20;;;;;;10351541;28;20484;-37
2022/10/12 09:13:38;;;;;;;8.95;3.22;;;19.80;62.90;;;;;;10351695;28;20597;-40
2022/10/12 09:18:42;;;;;;;11.70;2.75;;;19.90;62.80;;;;;;10352501;28;20058;-38
2022/10/12 09:23:47;;;;;;;7.13;3.17;;;19.90;62.70;;;;;;10347642;28;20177;-37
2022/10/12 09:28:53;;;;;;;4.25;2.67;;;19.80;62.60;;;;;;10348331;28;20806;-37
2022/10/12 09:33:57;;;;;;;7.22;3.00;;;19.90;62.60;;;;;;10350219;28;20121;-38
2022/10/12 09:39:04;;;;;;;11.73;3.15;;;19.90;62.50;;;;;;10348231;28;20509;-38
2022/10/12 09:44:07;;;;;;;5.85;2.97;;;19.90;62.50;;;;;;10349809;28;20116;-40
2022/10/12 09:49:09;;;;;;;6.90;2.92;;;19.80;62.80;;;;;;10352530;28;20077;-37
2022/10/12 09:54:18;;;;;;;7.68;2.88;;;19.70;63.10;;;;;;10350939;28;20077;-38
2022/10/12 09:59:28;;;;;;;10.23;3.65;;;19.70;63.20;;;;;;10351870;28;20058;-38
2022/10/12 10:04:30;;;;;;;6.90;3.05;;;19.90;62.80;;;;;;10352239;28;20092;-39
2022/10/12 10:09:34;;;;;;;;;;;19.90;62.60;;;;;;10351072;28;20791;-39
2022/10/12 10:14:36;;;;;;;7.35;3.25;;;19.80;62.90;;;;;;10356673;28;19925;-39
2022/10/12 10:19:38;;;;;;;11.05;2.90;;;19.80;62.80;;;;;;10358054;28;20554;-39
2022/10/12 10:24:41;;;;;;;7.30;2.90;;;19.80;63.00;;;;;;10359425;28;20092;-39
2022/10/12 10:29:44;;;;;;;9.52;2.50;;;19.90;62.50;;;;;;10357349;28;20141;-38
2022/10/12 10:34:46;;;;;;;8.15;2.38;;;20.10;62.10;;;;;;10358383;28;20088;-38
2022/10/12 10:39:52;;;;;;;9.45;2.45;;;20.10;62.20;;;;;;10357647;28;20038;-39
2022/10/12 10:44:59;;;;;;;10.02;2.80;;;20.00;62.40;;;;;;10357436;28;20073;-39
2022/10/12 10:50:02;;;;;;;4.95;2.30;;;20.00;62.40;;;;;;10356203;28;20450;-39
2022/10/12 10:55:23;;;;;;;6.97;2.50;;;20.00;62.40;;;;;;10354778;28;20061;-39
2022/10/12 11:00:25;;;;;;;7.82;2.47;;;20.00;62.50;;;;;;10358019;28;20486;-39
2022/10/12 11:05:29;;;;;;;9.50;2.33;;;20.00;62.90;;;;;;10356573;28;20053;-37
2022/10/12 11:10:37;;;;;;;6.13;2.22;;;20.10;62.40;;;;;;10357316;28;20399;-40
2022/10/12 11:15:44;;;;;;;10.02;2.80;;;20.20;62.10;;;;;;10356756;28;20073;-38
2022/10/12 11:20:57;;;;;;;9.80;2.05;;;20.10;62.40;;;;;;10357460;28;20061;-39
2022/10/12 11:26:11;;;;;;;11.50;3.17;;;20.20;62.00;;;;;;10357639;28;20549;-38
2022/10/12 11:31:20;;;;;;;9.48;3.03;;;20.10;62.10;;;;;;10355178;28;20479;-39
2022/10/12 11:36:26;;;;;;;8.55;2.20;;;20.20;61.80;;;;;;10356533;28;20050;-38
2022/10/12 11:41:41;;;;;;;8.32;2.30;;;20.20;61.80;;;;;;10355806;28;20092;-38
2022/10/12 11:46:48;;;;;;;8.90;2.50;;;20.00;61.50;;;;;;10356154;28;20046;-39
2022/10/12 11:51:52;;;;;;;13.13;2.22;;;20.20;61.10;;;;;;10356333;28;20133;-37
2022/10/12 11:57:01;;;;;;;10.20;2.72;;;20.10;62.20;;;;;;10355372;28;20050;-38
2022/10/12 12:02:12;;;;;;;5.43;3.35;;;19.70;63.60;;;;;;10355564;28;20139;-38
2022/10/12 12:07:40;;;;;;;13.50;3.53;;;19.00;64.00;;;;;;10354922;28;20145;-36
2022/10/12 12:13:10;;;;;;;9.90;3.78;;;19.40;64.20;;;;;;10353861;28;20093;-39
2022/10/12 12:18:13;;;;;;;7.63;2.20;;;20.00;62.60;;;;;;10352552;28;20061;-40
2022/10/12 12:23:20;;;;;;;10.02;2.50;;;20.10;62.10;;;;;;10353555;28;20049;-37
2022/10/12 12:28:24;;;;;;;8.57;2.17;;;20.10;62.30;;;;;;10350907;28;20050;-37
2022/10/12 12:33:32;;;;;;;9.10;2.67;;;20.00;62.30;;;;;;10352103;28;20487;-40
2022/10/12 12:38:37;;;;;;;7.80;2.10;;;20.50;61.40;;;;;;10353074;28;20117;-37
2022/10/12 12:43:53;;;;;;;9.60;2.13;;;20.70;61.00;;;;;;10355206;28;20157;-38
2022/10/12 12:48:57;;;;;;;7.68;2.15;;;20.70;61.30;;;;;;10351679;28;20656;-38
2022/10/12 12:54:02;;;;;;;13.40;3.95;;;20.60;61.90;;;;;;10350796;28;20049;-37
2022/10/12 12:59:28;;;;;;;7.45;1.90;;;20.90;61.00;;;;;;10349551;28;20510;-38
2022/10/12 13:04:50;;;;;;;10.27;2.10;;;20.70;62.10;;;;;;10351339;28;20075;-39
2022/10/12 13:10:31;;;;;;;9.75;4.03;;;21.00;60.90;;;;;;10353271;28;20056;-38
2022/10/12 13:15:44;;;;;;;6.75;3.10;;;20.80;61.80;;;;;;10329917;28;20166;-35
2022/10/12 13:20:48;;;;;;;7.57;2.42;;;20.60;61.90;;;;;;10351723;28;20058;-36
2022/10/12 13:25:53;;;;;;;6.25;1.88;;;20.50;59.40;;;;;;10351155;28;20422;-37
2022/10/12 13:31:00;;;;;;;5.88;2.17;;;20.50;62.60;;;;;;10351641;28;20121;-40
2022/10/12 13:36:05;;;;;;;5.57;1.98;;;20.50;59.60;;;;;;10351956;28;20054;-38
2022/10/12 13:41:10;;;;;;;4.95;1.63;;;20.90;62.10;;;;;;10348399;28;20482;-42
2022/10/12 13:46:33;;;;;;;7.80;2.13;;;21.00;61.70;;;;;;10351190;28;20049;-39
2022/10/12 13:51:35;;;;;;;7.15;2.35;;;21.20;60.80;;;;;;10364644;28;20129;-38
2022/10/12 13:56:40;;;;;;;5.32;2.15;;;21.40;59.20;;;;;;10363283;28;20070;-39
2022/10/12 14:01:51;;;;;;;10.65;3.55;;;21.30;60.40;;;;;;10363035;28;20042;-40
2022/10/12 14:07:04;;;;;;;6.53;1.90;;;21.30;59.50;;;;;;10370120;28;20396;-42
2022/10/12 14:12:09;;;;;;;9.95;2.63;;;21.30;60.20;;;;;;10365451;28;20605;-40
2022/10/12 14:17:16;;;;;;;7.85;2.90;;;21.30;59.90;;;;;;10366201;28;20135;-38
2022/10/12 14:22:25;;;;;;;10.68;3.75;;;21.50;59.90;;;;;;10362121;28;20068;-40
2022/10/12 14:27:28;;;;;;;8.70;3.03;;;21.20;56.70;;;;;;10363869;28;20443;-40
2022/10/12 14:32:41;;;;;;;4.72;2.03;;;21.20;60.40;;;;;;10362453;28;20401;-38
2022/10/12 14:37:43;;;;;;;;;;;21.20;62.20;;;;;;10363530;28;20153;-40
2022/10/12 14:42:54;;;;;;;14.87;4.67;;;21.30;61.20;;;;;;10362486;28;20089;-41
2022/10/12 14:47:58;;;;;;;8.47;3.07;;;21.40;60.60;;;;;;10364000;28;20045;-42
2022/10/12 14:53:03;;;;;;;8.95;3.70;;;21.50;61.00;;;;;;10364701;28;20081;-39
2022/10/12 14:58:07;;;;;;;6.75;2.95;;;21.60;57.60;;;;;;10363926;28;20177;-40
2022/10/12 15:03:10;;;;;;;5.88;2.08;;;21.60;56.70;;;;;;10357000;28;20046;-40
2022/10/12 15:08:12;;;;;;;6.85;1.63;;;21.80;60.10;;;;;;10355138;28;20153;-40
2022/10/12 15:13:13;;;;;;;4.68;1.85;;;21.90;59.90;;;;;;10355559;28;20057;-39
2022/10/12 15:18:17;;;;;;;4.10;1.30;;;21.70;59.80;;;;;;10353461;28;20049;-39
2022/10/12 15:23:19;;;;;;;3.70;1.40;;;22.10;59.40;;;;;;10353246;28;20668;-39
2022/10/12 15:28:22;;;;;;;7.82;3.42;;;22.20;59.40;;;;;;10354207;28;20664;-40
2022/10/12 15:33:25;;;;;;;5.40;1.95;;;22.10;57.90;;;;;;10354159;28;20194;-39
2022/10/12 15:38:27;;;;;;;7.30;2.75;;;22.10;59.20;;;;;;10350405;28;20085;-40
2022/10/12 15:43:30;;;;;;;7.82;1.83;;;22.20;59.00;;;;;;10353108;28;20841;-38
2022/10/12 15:48:33;;;;;;;5.88;1.48;;;22.20;59.00;;;;;;10353675;28;20653;-40
2022/10/12 15:53:35;;;;;;;5.07;1.42;;;22.20;58.90;;;;;;10354179;28;20045;-38
2022/10/12 15:58:37;;;;;;;3.92;1.63;;;22.20;58.90;;;;;;10355506;28;20054;-38
2022/10/12 16:03:40;;;;;;;5.97;1.88;;;22.20;58.80;;;;;;10353166;28;20042;-36
2022/10/12 16:08:43;;;;;;;4.35;1.70;;;22.20;58.90;;;;;;10354693;28;20077;-38
2022/10/12 16:13:46;;;;;;;;;;;22.20;59.40;;;;;;10353350;28;20264;-38
2022/10/12 16:18:52;;;;;;;5.28;1.83;;;22.20;58.70;;;;;;10352476;28;20055;-38
2022/10/12 16:23:54;;;;;;;8.90;1.70;;;22.30;58.80;;;;;;10352732;28;20595;-37
2022/10/12 16:28:56;;;;;;;7.30;1.88;;;22.20;58.80;;;;;;10349060;28;20127;-39
2022/10/12 16:33:59;;;;;;;12.30;2.17;;;22.20;59.00;;;;;;10353276;28;20046;-37
2022/10/12 16:39:01;;;;;;;6.20;1.70;;;22.20;59.00;;;;;;10351047;28;20092;-38
2022/10/12 16:44:03;;;;;;;12.23;2.05;;;22.10;59.20;;;;;;10351451;28;20151;-39
2022/10/12 16:49:06;;;;;;;;;;;22.00;59.40;;;;;;10353432;28;20488;-39
2022/10/12 16:54:08;;;;;;;7.20;2.10;;;22.10;59.50;;;;;;10351623;28;20000;-38
2022/10/12 16:59:10;;;;;;;2.83;1.35;;;22.00;59.60;;;;;;10350677;28;20141;-38
2022/10/12 17:04:13;;;;;;;;;;;22.00;59.60;;;;;;10352609;28;20133;-39
2022/10/12 17:09:16;;;;;;;8.75;2.42;;;22.00;59.80;;;;;;10351932;28;20016;-40
2022/10/12 17:14:18;;;;;;;4.38;1.80;;;22.00;59.90;;;;;;10351170;28;20079;-39
2022/10/12 17:19:26;;;;;;;5.93;1.58;;;22.00;60.10;;;;;;10348876;28;20169;-40
2022/10/12 17:24:29;;;;;;;6.40;1.80;;;21.90;60.10;;;;;;10349854;28;20093;-40
2022/10/12 17:29:35;;;;;;;10.63;1.77;;;21.90;60.20;;;;;;10344545;28;20050;-38
2022/10/12 17:34:40;;;;;;;4.70;1.67;;;21.80;60.60;;;;;;10347844;28;20572;-36
2022/10/12 17:39:44;;;;;;;6.38;2.15;;;21.80;60.70;;;;;;10348311;28;20089;-39
2022/10/12 17:44:46;;;;;;;4.55;1.77;;;21.80;60.90;;;;;;10350180;28;20953;-39
2022/10/12 17:49:50;;;;;;;4.93;2.00;;;21.80;61.10;;;;;;10349175;28;20096;-38
2022/10/12 17:54:52;;;;;;;6.53;2.08;;;21.70;61.40;;;;;;10345728;28;20819;-35
2022/10/12 17:59:53;;;;;;;5.28;1.83;;;21.70;61.60;;;;;;10350945;28;20101;-38
2022/10/12 18:04:57;;;;;;;3.83;1.88;;;21.70;61.80;;;;;;10350555;28;20132;-41
2022/10/12 18:09:58;;;;;;;4.22;2.22;;;21.70;62.00;;;;;;10343943;28;20137;-37
2022/10/12 18:15:00;;;;;;;6.20;2.42;;;21.50;62.00;;;;;;10343293;28;20140;-38
2022/10/12 18:20:04;;;;;;;4.18;1.85;;;21.40;62.20;;;;;;10349281;28;20086;-38
2022/10/12 18:25:07;;;;;;;5.22;1.95;;;21.60;62.50;;;;;;10348799;28;20519;-39
2022/10/12 18:30:10;;;;;;;5.22;1.75;;;21.50;62.60;;;;;;10351264;28;20042;-39
2022/10/12 18:35:13;;;;;;;6.57;1.80;;;21.50;62.70;;;;;;10351279;28;20132;-40
2022/10/12 18:40:15;;;;;;;3.40;1.52;;;21.50;62.90;;;;;;10357538;28;20514;-38
2022/10/12 18:45:18;;;;;;;3.72;1.83;;;21.60;62.80;;;;;;10358459;28;20127;-39
2022/10/12 18:50:21;;;;;;;4.90;2.28;;;21.60;62.80;;;;;;10355586;28;20112;-37
2022/10/12 18:55:23;;;;;;;3.15;1.70;;;21.50;62.90;;;;;;10355758;28;20129;-39
2022/10/12 19:00:25;;;;;;;;;;;21.50;62.90;;;;;;10356356;28;20145;-39
2022/10/12 19:05:28;;;;;;;3.83;1.73;;;21.50;63.00;;;;;;10356402;28;20009;-39
2022/10/12 19:10:30;;;;;;;6.85;1.73;;;21.50;63.20;;;;;;10354452;28;21087;-37
2022/10/12 19:15:31;;;;;;;10.45;2.08;;;21.50;63.20;;;;;;10353475;28;20054;-39
2022/10/12 19:20:37;;;;;;;9.88;2.17;;;21.40;63.00;;;;;;10355569;28;20061;-37
2022/10/12 19:25:38;;;;;;;11.63;2.70;;;21.30;63.10;;;;;;10355676;28;20108;-37
2022/10/12 19:30:40;;;;;;;7.40;2.85;;;21.30;63.20;;;;;;10357127;28;20053;-39
2022/10/12 19:35:43;;;;;;;9.52;2.38;;;21.30;63.00;;;;;;10353287;28;20446;-39
2022/10/12 19:40:45;;;;;;;20.08;2.83;;;21.30;62.90;;;;;;10355144;28;20046;-36
2022/10/12 19:45:48;;;;;;;16.80;3.03;;;21.20;63.00;;;;;;10354730;28;20426;-37
2022/10/12 19:51:00;;;;;;;8.45;2.17;;;21.30;62.90;;;;;;10351948;28;20132;-37
2022/10/12 19:56:04;;;;;;;17.87;3.33;;;21.30;62.80;;;;;;10352005;28;20129;-39
2022/10/12 20:01:08;;;;;;;10.57;2.58;;;21.30;62.80;;;;;;10352463;28;20046;-40
2022/10/12 20:06:12;;;;;;;8.25;2.55;;;21.30;62.80;;;;;;10350380;28;20495;-39
2022/10/12 20:11:15;;;;;;;11.50;3.10;;;21.30;62.70;;;;;;10351116;28;20061;-39
2022/10/12 20:16:19;;;;;;;10.95;2.60;;;21.30;62.70;;;;;;10351261;28;20096;-41
2022/10/12 20:21:23;;;;;;;14.57;3.25;;;21.20;62.60;;;;;;10347869;28;20483;-40
2022/10/12 20:26:26;;;;;;;12.90;3.03;;;21.20;62.60;;;;;;10351331;28;20046;-39
2022/10/12 20:31:28;;;;;;;11.50;3.03;;;21.20;62.60;;;;;;10351550;28;20984;-38
2022/10/12 20:36:31;;;;;;;11.10;3.47;;;21.20;62.50;;;;;;10352990;28;20062;-39
2022/10/12 20:41:33;;;;;;;9.98;2.83;;;21.20;62.60;;;;;;10352647;28;20050;-35
2022/10/12 20:46:35;;;;;;;10.00;3.00;;;21.20;62.60;;;;;;10353368;28;20128;-38
2022/10/12 20:51:42;;;;;;;11.32;3.30;;;21.20;62.70;;;;;;10354981;28;20133;-39
2022/10/12 20:56:44;;;;;;;8.70;2.63;;;21.10;62.80;;;;;;10354190;28;20873;-36
2022/10/12 21:01:45;;;;;;;;;;;21.10;62.80;;;;;;10354175;28;20052;-38
2022/10/12 21:06:48;;;;;;;10.18;2.88;;;21.10;62.90;;;;;;10353677;28;19968;-39
2022/10/12 21:11:50;;;;;;;8.25;2.15;;;21.10;63.00;;;;;;10353402;28;20045;-38
2022/10/12 21:16:52;;;;;;;7.55;2.80;;;21.10;62.90;;;;;;10352785;28;20056;-38
2022/10/12 21:21:55;;;;;;;7.03;2.78;;;21.10;62.90;;;;;;10350881;28;20471;-39
2022/10/12 21:26:57;;;;;;;7.93;2.60;;;21.00;62.90;;;;;;10350874;28;20046;-38
2022/10/12 21:31:59;;;;;;;12.55;3.05;;;21.00;63.00;;;;;;10349491;28;20586;-37
2022/10/12 21:37:02;;;;;;;6.57;2.88;;;21.00;63.10;;;;;;10350843;28;20388;-38
2022/10/12 21:42:04;;;;;;;6.65;2.63;;;20.90;63.10;;;;;;10349234;28;20375;-38
2022/10/12 21:47:06;;;;;;;8.02;2.60;;;20.90;63.10;;;;;;10330463;28;20056;-38
2022/10/12 21:52:09;;;;;;;9.82;2.78;;;20.90;63.10;;;;;;10350118;28;20136;-39
2022/10/12 21:57:11;;;;;;;6.78;2.22;;;20.80;63.70;;;;;;10348673;28;20064;-39
2022/10/12 22:02:13;;;;;;;5.07;2.17;;;20.80;63.30;;;;;;10349840;28;20058;-37
2022/10/12 22:07:16;;;;;;;9.20;2.40;;;20.70;63.40;;;;;;10351952;28;20050;-39
2022/10/12 22:12:18;;;;;;;6.30;2.20;;;20.70;63.50;;;;;;10358088;28;20329;-38
2022/10/12 22:17:19;;;;;;;5.80;2.13;;;20.70;63.40;;;;;;10359336;28;20942;-38
2022/10/12 22:22:23;;;;;;;9.15;3.53;;;20.80;63.40;;;;;;10361014;28;20484;-37
2022/10/12 22:27:25;;;;;;;9.55;2.42;;;20.70;63.50;;;;;;10358873;28;20139;-37
2022/10/12 22:32:27;;;;;;;7.47;2.30;;;20.70;63.40;;;;;;10357337;28;20046;-39
2022/10/12 22:37:30;;;;;;;5.72;1.90;;;20.70;63.50;;;;;;10356914;28;20065;-38
2022/10/12 22:42:32;;;;;;;7.32;2.15;;;20.70;63.40;;;;;;10358529;28;20929;-39
2022/10/12 22:47:34;;;;;;;5.20;1.90;;;20.60;63.90;;;;;;10360228;28;20457;-37
2022/10/12 22:52:37;;;;;;;4.82;2.05;;;20.70;63.70;;;;;;10356837;28;20068;-39
2022/10/12 22:57:41;;;;;;;9.60;2.50;;;20.60;63.80;;;;;;10354339;28;20662;-37
2022/10/12 23:02:43;;;;;;;5.35;2.03;;;20.60;63.80;;;;;;10356683;28;20060;-38
2022/10/12 23:07:46;;;;;;;9.88;2.03;;;20.40;64.40;;;;;;10359477;28;20126;-36
2022/10/12 23:12:48;;;;;;;6.45;2.10;;;20.60;63.90;;;;;;10356676;28;20395;-36
2022/10/12 23:17:50;;;;;;;2.85;2.03;;;20.60;64.30;;;;;;10359152;28;20054;-38
2022/10/12 23:22:53;;;;;;;7.50;3.60;;;20.50;63.90;;;;;;10355763;28;20141;-38
2022/10/12 23:27:55;;;;;;;9.75;2.65;;;20.30;64.30;;;;;;10357094;28;20065;-33
2022/10/12 23:32:57;;;;;;;4.85;1.83;;;20.00;65.70;;;;;;10357172;28;20056;-38
2022/10/12 23:38:00;;;;;;;16.77;6.35;;;20.30;65.00;;;;;;10357879;28;20153;-36
2022/10/12 23:43:02;;;;;;;6.05;2.08;;;20.00;66.30;;;;;;10358881;28;20054;-39
2022/10/12 23:48:04;;;;;;;3.35;2.28;;;20.00;66.30;;;;;;10354600;28;20050;-39
2022/10/12 23:53:08;;;;;;;5.40;2.45;;;19.60;67.80;;;;;;10357313;28;20054;-41
2022/10/12 23:58:10;;;;;;;7.70;4.55;;;19.30;70.00;;;;;;10356541;28;20121;-38
